createdAt,value
2022-08-05T00:00:18.451Z,25.00
2022-08-05T00:02:51.302Z,25.00
2022-08-05T00:05:27.171Z,25.10
2022-08-05T00:08:32.486Z,25.20
2022-08-05T00:11:00.761Z,25.30
2022-08-05T00:13:38.101Z,25.40
2022-08-05T00:16:12.472Z,25.40
2022-08-05T00:18:42.387Z,25.40
2022-08-05T00:21:14.406Z,25.40
2022-08-05T00:23:46.489Z,25.40
2022-08-05T00:26:23.151Z,25.30
2022-08-05T00:28:51.721Z,25.30
2022-08-05T00:31:53.273Z,25.30
2022-08-05T00:34:56.661Z,25.30
2022-08-05T00:37:12.833Z,25.30
2022-08-05T00:39:57.143Z,25.30
2022-08-05T00:42:37.015Z,25.40
2022-08-05T00:45:08.756Z,25.40
2022-08-05T00:47:57.076Z,25.40
2022-08-05T00:50:25.972Z,25.40
2022-08-05T00:52:55.292Z,25.30
2022-08-05T00:55:34.077Z,25.10
2022-08-05T00:58:12.134Z,25.10
2022-08-05T01:00:42.435Z,25.00
2022-08-05T01:03:12.620Z,25.00
2022-08-05T01:05:51.659Z,25.00
2022-08-05T01:08:41.080Z,25.00
2022-08-05T01:11:14.912Z,25.10
2022-08-05T01:14:01.045Z,25.10
2022-08-05T01:16:38.711Z,25.10
2022-08-05T01:19:17.120Z,25.10
2022-08-05T01:22:18.670Z,25.10
2022-08-05T01:25:40.457Z,24.90
2022-08-05T01:28:25.185Z,24.80
2022-08-05T01:30:57.382Z,24.70
2022-08-05T01:33:35.357Z,24.60
2022-08-05T01:36:13.140Z,24.50
2022-08-05T01:38:48.611Z,24.40
2022-08-05T01:41:21.847Z,24.30
2022-08-05T01:43:53.092Z,24.30
2022-08-05T01:46:42.625Z,24.40
2022-08-05T01:49:24.203Z,24.50
2022-08-05T01:51:58.361Z,24.40
2022-08-05T01:54:31.478Z,24.40
2022-08-05T01:58:09.490Z,24.30
2022-08-05T01:59:53.687Z,24.20
2022-08-05T02:02:28.436Z,24.10
2022-08-05T02:05:01.816Z,24.00
2022-08-05T02:07:32.002Z,24.00
2022-08-05T02:10:02.161Z,23.90
2022-08-05T02:12:36.621Z,23.80
2022-08-05T02:15:12.180Z,23.80
2022-08-05T02:18:27.929Z,23.80
2022-08-05T02:20:41.236Z,23.90
2022-08-05T02:23:12.897Z,24.00
2022-08-05T02:25:49.581Z,24.10
2022-08-05T02:28:29.203Z,24.10
2022-08-05T02:31:07.658Z,24.10
2022-08-05T02:33:48.338Z,24.10
2022-08-05T02:36:20.249Z,24.00
2022-08-05T02:38:53.089Z,23.90
2022-08-05T02:41:28.703Z,23.80
2022-08-05T02:44:11.983Z,23.70
2022-08-05T02:46:58.554Z,23.60
2022-08-05T02:49:36.448Z,23.50
2022-08-05T02:52:11.535Z,23.50
2022-08-05T02:54:51.122Z,23.40
2022-08-05T02:58:10.886Z,23.40
2022-08-05T03:00:12.613Z,23.40
2022-08-05T03:02:44.901Z,23.50
2022-08-05T03:05:13.399Z,23.50
2022-08-05T03:08:01.155Z,23.60
2022-08-05T03:10:31.178Z,23.60
2022-08-05T03:15:27.347Z,23.50
2022-08-05T03:17:58.047Z,23.40
2022-08-05T03:20:27.580Z,23.30
2022-08-05T03:22:57.302Z,23.20
2022-08-05T03:25:33.308Z,23.10
2022-08-05T03:28:18.431Z,23.00
2022-08-05T03:30:49.158Z,22.90
2022-08-05T03:33:19.354Z,22.80
2022-08-05T03:35:48.233Z,22.90
2022-08-05T03:38:32.798Z,22.90
2022-08-05T03:41:08.475Z,23.00
2022-08-05T03:44:07.993Z,23.00
2022-08-05T03:46:30.024Z,23.00
2022-08-05T03:49:02.243Z,23.00
2022-08-05T03:52:37.710Z,23.00
2022-08-05T03:55:50.310Z,23.00
2022-08-05T03:57:42.349Z,23.00
2022-08-05T04:00:15.616Z,23.10
2022-08-05T04:02:57.641Z,23.10
2022-08-05T04:05:33.553Z,23.10
2022-08-05T04:08:05.799Z,23.00
2022-08-05T04:10:45.121Z,22.70
2022-08-05T04:13:13.709Z,22.60
2022-08-05T04:16:02.812Z,22.40
2022-08-05T04:18:30.140Z,22.30
2022-08-05T04:20:59.963Z,22.20
2022-08-05T04:23:58.438Z,22.20
2022-08-05T04:26:18.315Z,22.20
2022-08-05T04:28:50.722Z,22.30
2022-08-05T04:31:20.351Z,22.30
2022-08-05T04:34:17.215Z,22.40
2022-08-05T04:36:49.642Z,22.50
2022-08-05T04:39:18.417Z,22.70
2022-08-05T04:41:48.196Z,22.70
2022-08-05T04:44:29.064Z,22.80
2022-08-05T04:46:58.531Z,22.90
2022-08-05T04:49:38.597Z,23.10
2022-08-05T04:52:16.192Z,23.20
2022-08-05T04:54:44.182Z,23.30
2022-08-05T04:57:12.257Z,23.40
2022-08-05T04:59:40.752Z,23.50
2022-08-05T05:02:37.656Z,23.50
2022-08-05T05:05:02.320Z,23.60
2022-08-05T05:07:35.694Z,23.60
2022-08-05T05:10:05.423Z,23.60
2022-08-05T05:12:34.442Z,23.60
2022-08-05T05:15:10.769Z,23.60
2022-08-05T05:17:56.657Z,23.60
2022-08-05T05:20:28.507Z,23.60
2022-08-05T05:22:58.638Z,23.60
2022-08-05T05:25:40.457Z,23.60
2022-08-05T05:28:09.395Z,23.60
2022-08-05T05:30:37.746Z,23.60
2022-08-05T05:33:16.562Z,23.60
2022-08-05T05:35:47.331Z,23.70
2022-08-05T05:38:27.084Z,23.80
2022-08-05T05:40:57.063Z,23.80
2022-08-05T05:43:56.477Z,23.80
2022-08-05T05:46:17.372Z,24.00
2022-08-05T05:48:48.914Z,24.00
2022-08-05T05:51:21.456Z,24.10
2022-08-05T05:53:57.583Z,24.20
2022-08-05T05:56:33.279Z,24.30
2022-08-05T05:59:05.142Z,24.30
2022-08-05T06:01:37.959Z,24.40
2022-08-05T06:04:11.373Z,24.40
2022-08-05T06:06:42.394Z,24.40
2022-08-05T06:09:18.072Z,24.30
2022-08-05T06:12:02.557Z,24.30
2022-08-05T06:14:31.139Z,24.20
2022-08-05T06:17:02.108Z,24.20
2022-08-05T06:19:56.908Z,24.10
2022-08-05T06:22:29.331Z,24.10
2022-08-05T06:24:59.044Z,24.10
2022-08-05T06:28:11.225Z,24.00
2022-08-05T06:30:20.060Z,23.90
2022-08-05T06:32:50.743Z,23.90
2022-08-05T06:36:04.022Z,23.90
2022-08-05T06:38:11.142Z,24.00
2022-08-05T06:40:44.331Z,24.20
2022-08-05T06:43:51.731Z,24.30
2022-08-05T06:46:07.351Z,24.40
2022-08-05T06:48:55.521Z,24.50
2022-08-05T06:51:29.892Z,24.60
2022-08-05T06:53:59.766Z,24.70
2022-08-05T06:56:29.517Z,24.80
2022-08-05T06:58:57.803Z,24.80
2022-08-05T07:01:27.611Z,24.80
2022-08-05T07:04:01.344Z,24.70
2022-08-05T07:06:30.403Z,24.80
2022-08-05T07:09:00.235Z,24.80
2022-08-05T07:11:36.961Z,24.80
2022-08-05T07:14:30.011Z,24.90
2022-08-05T07:17:58.677Z,24.80
2022-08-05T07:20:34.066Z,24.80
2022-08-05T07:22:38.661Z,24.90
2022-08-05T07:25:24.050Z,24.90
2022-08-05T07:28:03.789Z,25.00
2022-08-05T07:30:34.711Z,25.00
2022-08-05T07:33:10.642Z,25.10
2022-08-05T07:36:03.086Z,25.20
2022-08-05T07:38:35.675Z,25.30
2022-08-05T07:42:07.173Z,25.30
2022-08-05T07:44:06.426Z,25.40
2022-08-05T07:46:48.294Z,25.50
2022-08-05T07:49:18.051Z,25.60
2022-08-05T07:51:52.913Z,25.70
2022-08-05T07:54:30.689Z,25.70
2022-08-05T07:57:22.566Z,25.90
2022-08-05T07:59:51.438Z,26.00
2022-08-05T08:02:19.621Z,26.00
2022-08-05T08:04:55.480Z,26.00
2022-08-05T08:07:24.286Z,26.00
2022-08-05T08:09:56.536Z,26.10
2022-08-05T08:12:35.585Z,26.20
2022-08-05T08:15:15.141Z,26.20
2022-08-05T08:17:49.637Z,26.10
2022-08-05T08:21:00.144Z,26.10
2022-08-05T08:24:00.199Z,26.10
2022-08-05T08:26:00.373Z,26.10
2022-08-05T08:28:36.530Z,26.10
2022-08-05T08:31:07.641Z,26.10
2022-08-05T08:33:38.309Z,26.20
2022-08-05T08:36:37.411Z,26.20
2022-08-05T08:38:56.794Z,26.30
2022-08-05T08:41:52.638Z,26.40
2022-08-05T08:45:17.009Z,26.60
2022-08-05T08:47:46.811Z,26.70
2022-08-05T08:50:06.178Z,26.80
2022-08-05T08:52:47.393Z,26.90
2022-08-05T08:56:02.035Z,27.00
2022-08-05T08:58:09.897Z,27.10
2022-08-05T09:00:42.307Z,27.20
2022-08-05T09:03:16.240Z,27.30
2022-08-05T09:06:08.826Z,27.40
2022-08-05T09:08:40.072Z,27.50
2022-08-05T09:11:12.204Z,27.60
2022-08-05T09:14:09.517Z,27.60
2022-08-05T09:16:31.177Z,27.70
2022-08-05T09:19:00.648Z,27.80
2022-08-05T09:22:28.702Z,27.90
2022-08-05T09:24:17.727Z,28.10
2022-08-05T09:26:51.701Z,28.20
2022-08-05T09:29:20.459Z,28.20
2022-08-05T09:32:41.248Z,28.30
2022-08-05T09:34:58.485Z,28.40
2022-08-05T09:38:16.960Z,28.50
2022-08-05T09:40:32.274Z,28.70
2022-08-05T09:43:01.449Z,28.80
2022-08-05T09:46:07.312Z,28.90
2022-08-05T09:48:30.052Z,29.00
2022-08-05T09:51:01.750Z,29.20
2022-08-05T09:53:54.034Z,29.20
2022-08-05T09:56:26.743Z,29.30
2022-08-05T09:58:59.254Z,29.30
2022-08-05T10:01:31.823Z,29.40
2022-08-05T10:04:04.138Z,29.40
2022-08-05T10:06:41.451Z,29.50
2022-08-05T10:09:27.824Z,29.50
2022-08-05T10:12:30.604Z,29.60
2022-08-05T10:15:13.929Z,29.70
2022-08-05T10:17:56.777Z,29.80
2022-08-05T10:20:27.057Z,29.90
2022-08-05T10:22:58.466Z,30.10
2022-08-05T10:25:26.756Z,30.20
2022-08-05T10:28:13.056Z,30.20
2022-08-05T10:32:51.792Z,30.30
2022-08-05T10:33:35.115Z,30.30
2022-08-05T10:36:05.448Z,30.40
2022-08-05T10:38:37.376Z,30.50
2022-08-05T10:41:13.883Z,30.50
2022-08-05T10:43:51.854Z,30.70
2022-08-05T10:46:24.071Z,30.60
2022-08-05T10:49:02.686Z,30.60
2022-08-05T10:51:57.714Z,30.60
2022-08-05T10:54:56.605Z,30.70
2022-08-05T10:57:32.348Z,30.60
2022-08-05T11:00:16.095Z,30.60
2022-08-05T11:03:23.076Z,30.60
2022-08-05T11:06:15.631Z,30.50
2022-08-05T11:09:31.914Z,30.50
2022-08-05T11:12:54.498Z,30.30
2022-08-05T11:15:59.523Z,30.10
2022-08-05T11:18:27.254Z,29.90
2022-08-05T11:20:59.118Z,29.90
2022-08-05T11:24:02.502Z,29.90
2022-08-05T11:26:28.281Z,29.90
2022-08-05T11:29:06.744Z,29.90
2022-08-05T11:31:56.446Z,29.90
2022-08-05T11:34:38.660Z,30.10
2022-08-05T11:38:28.186Z,30.30
2022-08-05T11:40:03.213Z,30.60
2022-08-05T11:42:37.963Z,30.80
2022-08-05T11:45:14.283Z,30.90
2022-08-05T11:47:54.826Z,31.20
2022-08-05T11:50:23.299Z,31.20
2022-08-05T11:52:57.683Z,31.30
2022-08-05T11:55:32.332Z,31.40
2022-08-05T11:58:09.941Z,31.50
2022-08-05T12:00:44.362Z,31.50
2022-08-05T12:03:28.842Z,31.50
2022-08-05T12:06:01.509Z,31.70
2022-08-05T12:08:31.725Z,31.90
2022-08-05T12:11:05.975Z,32.00
2022-08-05T12:13:48.933Z,32.30
2022-08-05T12:16:25.420Z,32.40
2022-08-05T12:18:54.252Z,32.70
2022-08-05T12:21:24.527Z,32.90
2022-08-05T12:23:58.459Z,32.90
2022-08-05T12:26:32.381Z,33.00
2022-08-05T12:29:01.460Z,33.20
2022-08-05T12:31:43.749Z,33.30
2022-08-05T12:34:20.720Z,33.40
2022-08-05T12:36:54.207Z,33.50
2022-08-05T12:39:23.484Z,33.60
2022-08-05T12:41:59.389Z,33.70
2022-08-05T12:44:33.469Z,33.70
2022-08-05T12:47:04.355Z,33.80
2022-08-05T12:50:03.484Z,33.90
2022-08-05T12:52:39.742Z,33.90
2022-08-05T12:55:22.676Z,34.00
2022-08-05T12:58:48.312Z,33.90
2022-08-05T13:02:02.435Z,34.00
2022-08-05T13:03:39.102Z,34.00
2022-08-05T13:06:16.110Z,34.00
2022-08-05T13:08:50.955Z,34.00
2022-08-05T13:11:57.933Z,34.10
2022-08-05T13:14:25.071Z,34.20
2022-08-05T13:17:10.240Z,34.30
2022-08-05T13:19:51.982Z,34.40
2022-08-05T13:22:28.351Z,34.50
2022-08-05T13:25:00.407Z,34.50
2022-08-05T13:27:37.974Z,34.70
2022-08-05T13:30:32.968Z,34.80
2022-08-05T13:32:57.268Z,34.80
2022-08-05T13:35:47.342Z,34.90
